Sea Thames — V2BV1 — position and weather

sailwx.info

Track history (hours):
 
Tides and Currents Weather Stations Pressure Air Temp Water Temp Dewpoint Dewpoint Depression Visibility Wind Speed Wind Dir Waves Ship Positions

Sea Thames

Last reported at 2017-Mar-20 07:22 UTC. Time now 2017-Mar-24 02:07 UTC.
Position N 39°21' W 009°50'.

Length 87 m; draft 3.2 m.

Type: Cargo ship. MMSI: 304933000.

Date/timePositionNaut miles runAvg speedWind from/ knotsBaromVisibWave heightAir tempDewpointWater temp
2017-Mar-20 07:22N 39°21' W 009°50'5 5.8
2017-Mar-20 06:33N 39°16' W 009°50'6 5.7
2017-Mar-20 05:33N 39°11' W 009°50'6 5.9
2017-Mar-20 04:33N 39°05' W 009°50'6 5.8
2017-Mar-20 03:33N 38°59' W 009°50'6 5.8
2017-Mar-20 02:33N 38°53' W 009°51'6 5.7
2017-Mar-20 01:33N 38°47' W 009°51'5 5.3
2017-Mar-20 00:33N 38°42' W 009°51'5 5.0
2017-Mar-19 23:33N 38°37' W 009°49'5 5.1
2017-Mar-19 22:33N 38°32' W 009°47'5 5.2
2017-Mar-19 21:33N 38°27' W 009°45'5 5.2
2017-Mar-19 20:33N 38°22' W 009°44'6 5.6
2017-Mar-19 19:33N 38°17' W 009°42'6 6.0
2017-Mar-19 18:33N 38°11' W 009°41'6 6.2
2017-Mar-19 17:33N 38°05' W 009°39'6 6.4
2017-Mar-19 16:33N 37°59' W 009°37'7 7.0
2017-Mar-19 15:33N 37°52' W 009°35'7 7.0
2017-Mar-19 14:33N 37°45' W 009°34'7 7.1
2017-Mar-19 13:33N 37°38' W 009°31'7 6.9
2017-Mar-19 12:33N 37°32' W 009°29'7 7.3
2017-Mar-19 11:33N 37°25' W 009°26'7 7.5
2017-Mar-19 10:33N 37°17' W 009°25'7 7.4
2017-Mar-19 09:33N 37°10' W 009°23'8 7.6
2017-Mar-19 08:33N 37°03' W 009°21'23 7.6
2017-Mar-19 05:32N 36°44' W 009°04'8 8.5
2017-Mar-19 04:33N 36°43' W 008°54'28 8.2
2017-Mar-19 01:12N 36°40' W 008°19'5 7.9
2017-Mar-19 00:31N 36°39' W 008°13'8 8.1
2017-Mar-18 23:33N 36°38' W 008°03'  
2017-Mar-14 16:33N 38°18' W 009°58'8 7.9
2017-Mar-14 15:33N 38°26' W 010°01'8 8.0
2017-Mar-14 14:33N 38°34' W 010°03'8 8.1
2017-Mar-14 13:33N 38°42' W 010°05'8 8.2
2017-Mar-14 12:33N 38°50' W 010°05'8 7.9
2017-Mar-14 11:33N 38°57' W 010°02'8 8.4
2017-Mar-14 10:33N 39°05' W 009°59'9 8.5
2017-Mar-14 09:33N 39°13' W 009°55'  
2017-Mar-11 06:13N 43°50' W 005°58'7 8.0
2017-Mar-11 05:19N 43°49' W 005°48'16 7.9
2017-Mar-11 03:21N 43°46' W 005°27'22 7.4
2017-Mar-11 00:26N 43°44' W 004°57'  
Track history (hours):
 
Tides and Currents Weather Stations Pressure Air Temp Water Temp Dewpoint Dewpoint Depression Visibility Wind Speed Wind Dir Waves Ship Positions

Sea Thames

Last reported at 2017-Mar-20 07:22 UTC. Time now 2017-Mar-24 02:07 UTC.
Position N 39°21' W 009°50'.

Length 87 m; draft 3.2 m.

Type: Cargo ship. MMSI: 304933000.

Date/timePositionNaut miles runAvg speedWind from/ knotsBaromVisibWave heightAir tempDewpointWater temp
2017-Mar-20 07:22N 39°21' W 009°50'5 5.8
2017-Mar-20 06:33N 39°16' W 009°50'6 5.7
2017-Mar-20 05:33N 39°11' W 009°50'6 5.9
2017-Mar-20 04:33N 39°05' W 009°50'6 5.8
2017-Mar-20 03:33N 38°59' W 009°50'6 5.8
2017-Mar-20 02:33N 38°53' W 009°51'6 5.7
2017-Mar-20 01:33N 38°47' W 009°51'5 5.3
2017-Mar-20 00:33N 38°42' W 009°51'5 5.0
2017-Mar-19 23:33N 38°37' W 009°49'5 5.1
2017-Mar-19 22:33N 38°32' W 009°47'5 5.2
2017-Mar-19 21:33N 38°27' W 009°45'5 5.2
2017-Mar-19 20:33N 38°22' W 009°44'6 5.6
2017-Mar-19 19:33N 38°17' W 009°42'6 6.0
2017-Mar-19 18:33N 38°11' W 009°41'6 6.2
2017-Mar-19 17:33N 38°05' W 009°39'6 6.4
2017-Mar-19 16:33N 37°59' W 009°37'7 7.0
2017-Mar-19 15:33N 37°52' W 009°35'7 7.0
2017-Mar-19 14:33N 37°45' W 009°34'7 7.1
2017-Mar-19 13:33N 37°38' W 009°31'7 6.9
2017-Mar-19 12:33N 37°32' W 009°29'7 7.3
2017-Mar-19 11:33N 37°25' W 009°26'7 7.5
2017-Mar-19 10:33N 37°17' W 009°25'7 7.4
2017-Mar-19 09:33N 37°10' W 009°23'8 7.6
2017-Mar-19 08:33N 37°03' W 009°21'23 7.6
2017-Mar-19 05:32N 36°44' W 009°04'8 8.5
2017-Mar-19 04:33N 36°43' W 008°54'28 8.2
2017-Mar-19 01:12N 36°40' W 008°19'5 7.9
2017-Mar-19 00:31N 36°39' W 008°13'8 8.1
2017-Mar-18 23:33N 36°38' W 008°03'  
2017-Mar-14 16:33N 38°18' W 009°58'8 7.9
2017-Mar-14 15:33N 38°26' W 010°01'8 8.0
2017-Mar-14 14:33N 38°34' W 010°03'8 8.1
2017-Mar-14 13:33N 38°42' W 010°05'8 8.2
2017-Mar-14 12:33N 38°50' W 010°05'8 7.9
2017-Mar-14 11:33N 38°57' W 010°02'8 8.4
2017-Mar-14 10:33N 39°05' W 009°59'9 8.5
2017-Mar-14 09:33N 39°13' W 009°55'  
2017-Mar-11 06:13N 43°50' W 005°58'7 8.0
2017-Mar-11 05:19N 43°49' W 005°48'16 7.9
2017-Mar-11 03:21N 43°46' W 005°27'22 7.4
2017-Mar-11 00:26N 43°44' W 004°57'  

Dump ship's entire track history